| time (UTC) | temp C | wind direction | speed KPH | gust KPH | rain 1hr cm | rain 24hr cm | rain mn cm | humidity % | barometer mb |
| 20260509211803 | 30 | 270 | 6.4 | 6.4 | 0.00 | 0.00 | 0.00 | 65 | 1004.7 |
| 20260509211259 | 30 | 279 | 4.8 | 4.8 | 0.00 | 0.00 | 0.00 | 64 | 1004.3 |
| 20260509210756 | 31 | 264 | 6.4 | 6.4 | 0.00 | 0.00 | 0.00 | 63 | 1004.7 |
| 20260509210254 | 31 | 342 | 12.9 | 12.9 | 0.00 | 0.00 | 0.00 | 62 | 1004.7 |
| 20260509205753 | 31 | 319 | 9.7 | 11.3 | 0.00 | 0.00 | 0.00 | 63 | 1005.0 |
| 20260509205248 | 31 | 332 | 8.0 | 9.7 | 0.00 | 0.00 | 0.00 | 63 | 1004.7 |
| 20260509204744 | 31 | 23 | 6.4 | 6.4 | 0.00 | 0.00 | 0.00 | 62 | 1004.7 |
| 20260509204241 | 30 | 342 | 11.3 | 11.3 | 0.00 | 0.00 | 0.00 | 63 | 1004.7 |
| 20260509203737 | 30 | 313 | 9.7 | 9.7 | 0.00 | 0.00 | 0.00 | 63 | 1005.0 |
| 20260509203235 | 30 | 318 | 4.8 | 4.8 | 0.00 | 0.00 | 0.00 | 64 | 1004.7 |
| 20260509202730 | 30 | 282 | 4.8 | 4.8 | 0.00 | 0.00 | 0.00 | 64 | 1005.0 |
| 20260509202226 | 30 | 307 | 6.4 | 6.4 | 0.00 | 0.00 | 0.00 | 65 | 1005.0 |
| 20260509201721 | 31 | 264 | 6.4 | 6.4 | 0.00 | 0.00 | 0.00 | 63 | 1005.3 |
| 20260509201218 | 31 | 312 | 4.8 | 4.8 | 0.00 | 0.00 | 0.00 | 61 | 1005.3 |
| 20260509200715 | 31 | 312 | 4.8 | 4.8 | 0.00 | 0.00 | 0.00 | 62 | 1005.3 |
| 20260509200209 | 31 | 6 | 8.0 | 8.0 | 0.00 | 0.00 | 0.00 | 65 | 1005.3 |
| 20260509195705 | 31 | 78 | 6.4 | 6.4 | 0.00 | 0.00 | 0.00 | 64 | 1005.0 |
| 20260509195201 | 32 | 335 | 8.0 | 9.7 | 0.00 | 0.00 | 0.00 | 61 | 1005.3 |
| 20260509194655 | 32 | 312 | 9.7 | 11.3 | 0.00 | 0.00 | 0.00 | 60 | 1005.3 |
| 20260509194152 | 32 | 308 | 6.4 | 6.4 | 0.00 | 0.00 | 0.00 | 57 | 1005.3 |
| 20260509193648 | 31 | 202 | 3.2 | 3.2 | 0.00 | 0.00 | 0.00 | 61 | 1005.3 |
| 20260509193144 | 30 | 309 | 6.4 | 6.4 | 0.00 | 0.00 | 0.00 | 60 | 1005.3 |
| 20260509192640 | 30 | 220 | 4.8 | 4.8 | 0.00 | 0.00 | 0.00 | 67 | 1005.7 |
| 20260509192135 | 30 | 138 | 9.7 | 11.3 | 0.00 | 0.00 | 0.00 | 69 | 1005.7 |
| 20260509191629 | 30 | 138 | 12.9 | 14.5 | 0.00 | 0.00 | 0.00 | 70 | 1006.0 |
| 20260509191127 | 30 | 174 | 4.8 | 4.8 | 0.00 | 0.00 | 0.00 | 67 | 1005.7 |
| 20260509190623 | 30 | 156 | 4.8 | 4.8 | 0.00 | 0.00 | 0.00 | 67 | 1005.7 |
| 20260509190120 | 30 | 144 | 4.8 | 4.8 | 0.00 | 0.00 | 0.00 | 67 | 1005.7 |
| 20260509185618 | 29 | 114 | 0.0 | 0.0 | 0.00 | 0.00 | 0.00 | 72 | 1006.0 |
| 20260509185114 | 29 | 138 | 6.4 | 6.4 | 0.00 | 0.00 | 0.00 | 75 | 1006.0 |
| 20260509184612 | 29 | 66 | 4.8 | 4.8 | 0.00 | 0.00 | 0.00 | 72 | 1006.0 |
| 20260509184109 | 30 | 309 | 12.9 | 14.5 | 0.00 | 0.00 | 0.00 | 70 | 1006.3 |
| 20260509183604 | 30 | 72 | 6.4 | 6.4 | 0.00 | 0.00 | 0.00 | 68 | 1006.3 |
| 20260509183100 | 30 | 293 | 4.8 | 4.8 | 0.00 | 0.00 | 0.00 | 68 | 1006.3 |
| 20260509182556 | 30 | 230 | 3.2 | 3.2 | 0.00 | 0.00 | 0.00 | 65 | 1006.3 |
| 20260509182053 | 30 | 314 | 3.2 | 3.2 | 0.00 | 0.00 | 0.00 | 69 | 1006.3 |
| 20260509181552 | 29 | 126 | 9.7 | 11.3 | 0.00 | 0.00 | 0.00 | 70 | 1006.7 |
| 20260509181048 | 29 | 172 | 3.2 | 3.2 | 0.00 | 0.00 | 0.00 | 69 | 1006.3 |
| 20260509180544 | 29 | 279 | 3.2 | 3.2 | 0.00 | 0.00 | 0.00 | 71 | 1006.7 |
| 20260509180042 | 28 | 96 | 4.8 | 4.8 | 0.00 | 0.00 | 0.00 | 75 | 1006.7 |
| 20260509175537 | 28 | 128 | 4.8 | 4.8 | 0.00 | 0.00 | 0.00 | 78 | 1006.7 |
| 20260509175035 | 28 | 133 | 0.0 | 0.0 | 0.00 | 0.00 | 0.00 | 77 | 1007.0 |
| 20260509174531 | 28 | 93 | 4.8 | 4.8 | 0.00 | 0.00 | 0.00 | 76 | 1007.0 |
| 20260509174026 | 28 | 132 | 11.3 | 12.9 | 0.00 | 0.00 | 0.00 | 75 | 1007.0 |
| 20260509173520 | 28 | 132 | 4.8 | 4.8 | 0.00 | 0.00 | 0.00 | 77 | 1007.0 |
| 20260509173017 | 28 | 102 | 4.8 | 4.8 | 0.00 | 0.00 | 0.00 | 76 | 1007.0 |
| 20260509172515 | 28 | 150 | 3.2 | 3.2 | 0.00 | 0.00 | 0.00 | 75 | 1007.4 |
| 20260509172010 | 28 | 273 | 0.0 | 0.0 | 0.00 | 0.00 | 0.00 | 76 | 1007.4 |
| 20260509171506 | 28 | 276 | 3.2 | 3.2 | 0.00 | 0.00 | 0.00 | 77 | 1007.4 |
| 20260509171003 | 29 | 60 | 4.8 | 4.8 | 0.00 | 0.00 | 0.00 | 73 | 1007.0 |
| 20260509170458 | 28 | 282 | 0.0 | 0.0 | 0.00 | 0.00 | 0.00 | 76 | 1007.4 |
| 20260509165954 | 28 | 282 | 0.0 | 0.0 | 0.00 | 0.00 | 0.00 | 79 | 1007.4 |
| 20260509165453 | 27 | 281 | 4.8 | 4.8 | 0.00 | 0.00 | 0.00 | 79 | 1007.4 |
| 20260509164949 | 27 | 305 | 4.8 | 4.8 | 0.00 | 0.00 | 0.00 | 81 | 1007.4 |
| 20260509164445 | 27 | 220 | 0.0 | 0.0 | 0.00 | 0.00 | 0.00 | 82 | 1007.4 |
| 20260509163941 | 27 | 258 | 4.8 | 4.8 | 0.00 | 0.00 | 0.00 | 82 | 1007.4 |
| 20260509163439 | 27 | 174 | 0.0 | 0.0 | 0.00 | 0.00 | 0.00 | 83 | 1007.4 |
| 20260509162938 | 26 | 174 | 6.4 | 6.4 | 0.00 | 0.00 | 0.00 | 83 | 1007.0 |
| 20260509162437 | 26 | 174 | 6.4 | 6.4 | 0.00 | 0.00 | 0.00 | 85 | 1007.0 |
| 20260509161932 | 26 | 264 | 0.0 | 0.0 | 0.00 | 0.00 | 0.00 | 86 | 1007.4 |
| 20260509161429 | 26 | 254 | 6.4 | 6.4 | 0.00 | 0.00 | 0.00 | 86 | 1007.0 |
| 20260509160924 | 26 | 276 | 4.8 | 4.8 | 0.00 | 0.00 | 0.00 | 87 | 1006.7 |
| 20260509160420 | 25 | 258 | 3.2 | 3.2 | 0.00 | 0.00 | 0.00 | 88 | 1007.0 |
| 20260509155916 | 25 | 240 | 0.0 | 0.0 | 0.00 | 0.00 | 0.00 | 88 | 1007.4 |
| 20260509155412 | 25 | 173 | 0.0 | 0.0 | 0.00 | 0.00 | 0.00 | 88 | 1007.0 |
| 20260509154909 | 25 | 173 | 0.0 | 0.0 | 0.00 | 0.00 | 0.00 | 89 | 1007.0 |
| 20260509154405 | 25 | 276 | 4.8 | 4.8 | 0.00 | 0.00 | 0.00 | 89 | 1007.0 |
| 20260509153902 | 25 | 187 | 6.4 | 6.4 | 0.00 | 0.00 | 0.00 | 89 | 1007.0 |
| 20260509153359 | 25 | 208 | 3.2 | 3.2 | 0.00 | 0.00 | 0.00 | 91 | 1007.0 |
| 20260509152856 | 25 | 190 | 4.8 | 4.8 | 0.00 | 0.00 | 0.00 | 92 | 1006.7 |
| 20260509152352 | 25 | 204 | 11.3 | 12.9 | 0.00 | 0.00 | 0.00 | 91 | 1006.7 |
| 20260509151850 | 25 | 208 | 12.9 | 12.9 | 0.00 | 0.00 | 0.00 | 92 | 1006.3 |
| 20260509151345 | 24 | 162 | 16.1 | 16.1 | 0.00 | 0.00 | 0.00 | 92 | 1006.0 |
| 20260509150844 | 24 | 161 | 16.1 | 17.7 | 0.00 | 0.00 | 0.00 | 93 | 1006.3 |
| 20260509150341 | 24 | 204 | 9.7 | 9.7 | 0.00 | 0.00 | 0.00 | 93 | 1006.7 |
| 20260509145838 | 24 | 237 | 8.0 | 8.0 | 0.00 | 0.00 | 0.00 | 93 | 1006.3 |
| 20260509145333 | 24 | 189 | 9.7 | 9.7 | 0.00 | 0.00 | 0.00 | 94 | 1006.3 |
| 20260509144830 | 23 | 186 | 9.7 | 11.3 | 0.00 | 0.00 | 0.00 | 94 | 1006.7 |
| 20260509144327 | 23 | 173 | 9.7 | 11.3 | 0.00 | 0.00 | 0.00 | 95 | 1006.7 |
| 20260509143824 | 23 | 175 | 8.0 | 8.0 | 0.00 | 0.00 | 0.00 | 95 | 1006.3 |
| 20260509143321 | 23 | 134 | 14.5 | 16.1 | 0.00 | 0.00 | 0.00 | 95 | 1006.7 |
| 20260509142817 | 23 | 166 | 12.9 | 14.5 | 0.00 | 0.00 | 0.00 | 95 | 1006.3 |
| 20260509142314 | 23 | 184 | 8.0 | 8.0 | 0.00 | 0.00 | 0.00 | 95 | 1006.7 |
| 20260509141809 | 23 | 180 | 9.7 | 9.7 | 0.00 | 0.00 | 0.00 | 96 | 1006.3 |
| 20260509141307 | 23 | 174 | 6.4 | 6.4 | 0.00 | 0.00 | 0.00 | 96 | 1007.0 |
| 20260509140803 | 23 | 186 | 6.4 | 6.4 | 0.00 | 0.00 | 0.00 | 97 | 1006.7 |
| 20260509140300 | 23 | 184 | 4.8 | 4.8 | 0.00 | 0.00 | 0.00 | 97 | 1007.0 |
| 20260509135758 | 23 | 186 | 4.8 | 4.8 | 0.00 | 0.00 | 0.00 | 97 | 1006.7 |
| 20260509135255 | 23 | 186 | 3.2 | 3.2 | 0.00 | 0.00 | 0.00 | 97 | 1006.7 |
| 20260509134752 | 23 | 193 | 4.8 | 4.8 | 0.00 | 0.00 | 0.00 | 97 | 1006.7 |
| 20260509134250 | 23 | 199 | 8.0 | 8.0 | 0.00 | 0.00 | 0.00 | 97 | 1006.7 |
| 20260509133747 | 23 | 174 | 8.0 | 9.7 | 0.00 | 0.00 | 0.00 | 97 | 1006.7 |
| 20260509133243 | 23 | 167 | 11.3 | 11.3 | 0.00 | 0.00 | 0.00 | 97 | 1006.7 |
| 20260509132742 | 23 | 166 | 8.0 | 8.0 | 0.00 | 0.00 | 0.00 | 97 | 1006.7 |
| 20260509132240 | 23 | 151 | 9.7 | 11.3 | 0.00 | 0.00 | 0.00 | 97 | 1007.0 |
| 20260509131736 | 23 | 149 | 4.8 | 4.8 | 0.00 | 0.00 | 0.00 | 97 | 1006.7 |
| 20260509131233 | 22 | 170 | 9.7 | 11.3 | 0.00 | 0.00 | 0.00 | 97 | 1006.7 |
| 20260509130729 | 22 | 130 | 6.4 | 6.4 | 0.00 | 0.00 | 0.00 | 97 | 1006.7 |
| 20260509130225 | 22 | 133 | 6.4 | 6.4 | 0.00 | 0.00 | 0.00 | 97 | 1006.7 |
| 20260509125722 | 22 | 131 | 8.0 | 8.0 | 0.00 | 0.00 | 0.00 | 97 | 1006.7 |
| 20260509125219 | 22 | 168 | 9.7 | 9.7 | 0.00 | 0.00 | 0.00 | 97 | 1006.7 |
| 20260509124715 | 22 | 168 | 8.0 | 8.0 | 0.00 | 0.00 | 0.00 | 97 | 1006.3 |
| 20260509124212 | 22 | 174 | 6.4 | 6.4 | 0.00 | 0.00 | 0.00 | 97 | 1006.7 |
| 20260509123710 | 22 | 300 | 0.0 | 0.0 | 0.00 | 0.00 | 0.00 | 97 | 1006.3 |
| 20260509123207 | 22 | 300 | 0.0 | 0.0 | 0.00 | 0.00 | 0.00 | 97 | 1006.3 |
| 20260509122702 | 22 | 300 | 3.2 | 3.2 | 0.00 | 0.00 | 0.00 | 97 | 1006.7 |
| 20260509122200 | 22 | 300 | 4.8 | 4.8 | 0.00 | 0.00 | 0.00 | 97 | 1006.7 |
| 20260509121656 | 22 | 297 | 3.2 | 3.2 | 0.00 | 0.00 | 0.00 | 97 | 1006.7 |
| 20260509121154 | 22 | 228 | 4.8 | 4.8 | 0.00 | 0.00 | 0.00 | 97 | 1006.7 |
| 20260509120652 | 22 | 192 | 0.0 | 0.0 | 0.00 | 0.00 | 0.00 | 97 | 1006.3 |
| 20260509120149 | 22 | 192 | 0.0 | 0.0 | 0.00 | 0.00 | 0.00 | 97 | 1006.7 |
| 20260509115647 | 22 | 192 | 0.0 | 0.0 | 0.00 | 0.00 | 0.00 | 97 | 1006.3 |
| 20260509115144 | 22 | 192 | 0.0 | 0.0 | 0.00 | 0.00 | 0.00 | 97 | 1006.7 |
| 20260509114642 | 22 | 192 | 0.0 | 0.0 | 0.00 | 0.00 | 0.00 | 97 | 1006.7 |
| 20260509114141 | 22 | 192 | 0.0 | 0.0 | 0.00 | 0.00 | 0.00 | 97 | 1006.3 |
| 20260509113639 | 22 | 305 | 0.0 | 0.0 | 0.00 | 0.00 | 0.00 | 97 | 1006.7 |
| 20260509113136 | 22 | 305 | 0.0 | 0.0 | 0.00 | 0.00 | 0.00 | 97 | 1007.0 |
| 20260509112632 | 22 | 307 | 4.8 | 4.8 | 0.00 | 0.00 | 0.00 | 97 | 1007.0 |
| 20260509112130 | 22 | 307 | 4.8 | 4.8 | 0.00 | 0.00 | 0.00 | 97 | 1007.0 |
| 20260509111627 | 22 | 301 | 3.2 | 3.2 | 0.00 | 0.00 | 0.00 | 97 | 1007.4 |
| 20260509111123 | 22 | 298 | 6.4 | 6.4 | 0.00 | 0.00 | 0.00 | 97 | 1007.4 |
| 20260509110621 | 22 | 297 | 0.0 | 0.0 | 0.00 | 0.00 | 0.00 | 97 | 1007.0 |
| 20260509110118 | 22 | 296 | 0.0 | 0.0 | 0.00 | 0.00 | 0.00 | 97 | 1007.0 |
| 20260509105616 | 22 | 297 | 3.2 | 3.2 | 0.00 | 0.00 | 0.00 | 97 | 1007.0 |
| 20260509105113 | 22 | 120 | 4.8 | 4.8 | 0.00 | 0.00 | 0.00 | 97 | 1007.4 |
| 20260509104610 | 22 | 120 | 4.8 | 4.8 | 0.00 | 0.00 | 0.00 | 97 | 1007.0 |
| 20260509104108 | 22 | 120 | 0.0 | 0.0 | 0.00 | 0.00 | 0.00 | 97 | 1007.0 |
| 20260509103605 | 22 | 120 | 0.0 | 0.0 | 0.00 | 0.00 | 0.00 | 97 | 1006.7 |
| 20260509103102 | 22 | 120 | 0.0 | 0.0 | 0.00 | 0.00 | 0.00 | 97 | 1006.7 |
| 20260509102559 | 22 | 120 | 0.0 | 0.0 | 0.00 | 0.00 | 0.00 | 97 | 1006.7 |
| 20260509102056 | 22 | 120 | 0.0 | 0.0 | 0.00 | 0.00 | 0.00 | 97 | 1006.3 |
| 20260509101552 | 22 | 120 | 0.0 | 0.0 | 0.00 | 0.00 | 0.00 | 97 | 1006.3 |
| 20260509101049 | 22 | 120 | 0.0 | 0.0 | 0.00 | 0.00 | 0.00 | 96 | 1006.3 |
| 20260509100547 | 22 | 120 | 0.0 | 0.0 | 0.00 | 0.00 | 0.00 | 96 | 1006.7 |
| 20260509100044 | 22 | 120 | 0.0 | 0.0 | 0.00 | 0.00 | 0.00 | 96 | 1007.0 |
| 20260509095540 | 22 | 120 | 0.0 | 0.0 | 0.00 | 0.00 | 0.00 | 96 | 1007.0 |
| 20260509095038 | 22 | 120 | 4.8 | 4.8 | 0.00 | 0.00 | 0.00 | 96 | 1007.0 |
| 20260509094534 | 22 | 120 | 6.4 | 6.4 | 0.00 | 0.00 | 0.00 | 96 | 1006.7 |
| 20260509094032 | 22 | 120 | 4.8 | 4.8 | 0.00 | 0.00 | 0.00 | 96 | 1006.3 |
| 20260509093530 | 22 | 120 | 0.0 | 0.0 | 0.00 | 0.00 | 0.00 | 96 | 1006.0 |
| 20260509093027 | 22 | 120 | 0.0 | 0.0 | 0.00 | 0.00 | 0.00 | 96 | 1006.3 |
| 20260509092525 | 22 | 120 | 0.0 | 0.0 | 0.00 | 0.00 | 0.00 | 96 | 1006.0 |
| 20260509092023 | 22 | 120 | 0.0 | 0.0 | 0.00 | 0.00 | 0.00 | 96 | 1006.0 |
| 20260509091520 | 22 | 120 | 0.0 | 0.0 | 0.00 | 0.00 | 0.00 | 96 | 1006.0 |
| 20260509091017 | 22 | 120 | 0.0 | 0.0 | 0.00 | 0.00 | 0.00 | 96 | 1006.3 |
| 20260509090514 | 22 | 120 | 3.2 | 3.2 | 0.00 | 0.00 | 0.00 | 96 | 1006.0 |
| 20260509090012 | 22 | 120 | 0.0 | 0.0 | 0.00 | 0.00 | 0.00 | 96 | 1006.3 |
| 20260509085508 | 22 | 120 | 3.2 | 3.2 | 0.00 | 0.00 | 0.00 | 96 | 1006.0 |
| 20260509085004 | 22 | 120 | 3.2 | 3.2 | 0.00 | 0.00 | 0.00 | 96 | 1006.3 |
| 20260509084502 | 22 | 120 | 0.0 | 0.0 | 0.00 | 0.00 | 0.00 | 96 | 1006.3 |
| 20260509083959 | 22 | 120 | 0.0 | 0.0 | 0.00 | 0.00 | 0.00 | 96 | 1006.3 |
| 20260509083456 | 22 | 120 | 0.0 | 0.0 | 0.00 | 0.00 | 0.00 | 96 | 1006.7 |
| 20260509082952 | 22 | 120 | 0.0 | 0.0 | 0.00 | 0.00 | 0.00 | 96 | 1006.3 |
| 20260509082450 | 22 | 120 | 6.4 | 6.4 | 0.00 | 0.00 | 0.00 | 96 | 1006.3 |
| 20260509081947 | 22 | 132 | 9.7 | 11.3 | 0.00 | 0.00 | 0.00 | 96 | 1006.3 |
| 20260509081444 | 22 | 174 | 4.8 | 4.8 | 0.00 | 0.00 | 0.00 | 96 | 1006.3 |
| 20260509080941 | 22 | 160 | 8.0 | 9.7 | 0.00 | 0.00 | 0.00 | 96 | 1006.7 |
| 20260509080439 | 22 | 149 | 4.8 | 4.8 | 0.00 | 0.00 | 0.00 | 96 | 1006.7 |
| 20260509075937 | 22 | 149 | 4.8 | 4.8 | 0.00 | 0.00 | 0.00 | 95 | 1006.7 |
| 20260509075434 | 22 | 149 | 4.8 | 4.8 | 0.00 | 0.00 | 0.00 | 95 | 1006.7 |
| 20260509074932 | 22 | 149 | 4.8 | 4.8 | 0.00 | 0.00 | 0.00 | 95 | 1007.0 |
| 20260509074429 | 22 | 149 | 0.0 | 0.0 | 0.00 | 0.00 | 0.00 | 95 | 1007.0 |
| 20260509073925 | 22 | 149 | 4.8 | 4.8 | 0.00 | 0.00 | 0.00 | 95 | 1006.7 |
| 20260509073422 | 22 | 149 | 4.8 | 4.8 | 0.00 | 0.00 | 0.00 | 95 | 1007.0 |
| 20260509072918 | 22 | 149 | 0.0 | 0.0 | 0.00 | 0.00 | 0.00 | 95 | 1006.7 |
| 20260509072415 | 22 | 149 | 0.0 | 0.0 | 0.00 | 0.00 | 0.00 | 95 | 1007.0 |
| 20260509071911 | 22 | 149 | 0.0 | 0.0 | 0.00 | 0.00 | 0.00 | 95 | 1006.7 |
| 20260509071409 | 22 | 149 | 0.0 | 0.0 | 0.00 | 0.00 | 0.00 | 95 | 1006.7 |
| 20260509070906 | 22 | 149 | 0.0 | 0.0 | 0.00 | 0.00 | 0.00 | 95 | 1006.7 |
| 20260509070403 | 22 | 149 | 0.0 | 0.0 | 0.00 | 0.00 | 0.00 | 95 | 1006.7 |
| 20260509065858 | 22 | 149 | 6.4 | 6.4 | 0.00 | 0.00 | 0.00 | 95 | 1006.7 |
| 20260509065355 | 22 | 171 | 6.4 | 6.4 | 0.00 | 0.00 | 0.00 | 95 | 1006.7 |
| 20260509064851 | 22 | 136 | 6.4 | 6.4 | 0.00 | 0.00 | 0.00 | 95 | 1006.7 |
| 20260509064349 | 22 | 130 | 6.4 | 6.4 | 0.00 | 0.00 | 0.00 | 95 | 1006.3 |
| 20260509063846 | 22 | 131 | 9.7 | 11.3 | 0.00 | 0.00 | 0.00 | 95 | 1006.3 |
| 20260509063342 | 22 | 124 | 8.0 | 8.0 | 0.00 | 0.00 | 0.00 | 95 | 1006.7 |
| 20260509062839 | 22 | 145 | 4.8 | 4.8 | 0.00 | 0.00 | 0.00 | 95 | 1006.7 |
| 20260509062336 | 22 | 145 | 4.8 | 4.8 | 0.00 | 0.00 | 0.00 | 95 | 1006.7 |
| 20260509061833 | 22 | 136 | 9.7 | 11.3 | 0.00 | 0.00 | 0.00 | 95 | 1006.3 |
| 20260509061332 | 22 | 115 | 8.0 | 8.0 | 0.00 | 0.00 | 0.00 | 95 | 1006.3 |
| 20260509060828 | 22 | 132 | 6.4 | 6.4 | 0.00 | 0.00 | 0.00 | 95 | 1006.3 |
| 20260509060325 | 22 | 132 | 9.7 | 9.7 | 0.00 | 0.00 | 0.00 | 95 | 1006.3 |
| 20260509055820 | 22 | 126 | 9.7 | 11.3 | 0.00 | 0.00 | 0.00 | 95 | 1006.7 |
| 20260509055316 | 22 | 156 | 4.8 | 4.8 | 0.00 | 0.00 | 0.00 | 95 | 1006.7 |
| 20260509054814 | 22 | 158 | 12.9 | 14.5 | 0.00 | 0.00 | 0.00 | 95 | 1006.7 |
| 20260509054310 | 22 | 135 | 8.0 | 8.0 | 0.00 | 0.00 | 0.00 | 95 | 1006.7 |
| 20260509053809 | 22 | 126 | 8.0 | 8.0 | 0.00 | 0.00 | 0.00 | 95 | 1006.7 |
| 20260509053305 | 22 | 138 | 6.4 | 6.4 | 0.00 | 0.00 | 0.00 | 95 | 1006.3 |
| 20260509052803 | 22 | 174 | 6.4 | 6.4 | 0.00 | 0.00 | 0.00 | 95 | 1006.3 |
| 20260509052301 | 22 | 133 | 8.0 | 9.7 | 0.00 | 0.00 | 0.00 | 95 | 1006.3 |
| 20260509051758 | 22 | 164 | 8.0 | 8.0 | 0.00 | 0.00 | 0.00 | 95 | 1006.3 |
| 20260509051256 | 22 | 146 | 6.4 | 6.4 | 0.00 | 0.00 | 0.00 | 95 | 1006.3 |
| 20260509050752 | 22 | 146 | 6.4 | 6.4 | 0.00 | 0.00 | 0.00 | 95 | 1006.3 |
| 20260509050249 | 22 | 134 | 9.7 | 9.7 | 0.00 | 0.00 | 0.00 | 95 | 1006.0 |
| 20260509045746 | 23 | 138 | 12.9 | 12.9 | 0.00 | 0.00 | 0.00 | 95 | 1006.3 |
| 20260509045243 | 23 | 136 | 8.0 | 8.0 | 0.00 | 0.00 | 0.00 | 95 | 1006.0 |
| 20260509044740 | 23 | 133 | 11.3 | 11.3 | 0.00 | 0.00 | 0.00 | 95 | 1006.3 |
| 20260509044238 | 23 | 139 | 6.4 | 6.4 | 0.00 | 0.00 | 0.00 | 95 | 1006.3 |
| 20260509043734 | 23 | 150 | 12.9 | 14.5 | 0.00 | 0.00 | 0.00 | 95 | 1006.3 |
| 20260509043230 | 23 | 144 | 11.3 | 11.3 | 0.00 | 0.00 | 0.00 | 94 | 1006.3 |
| 20260509042726 | 23 | 144 | 14.5 | 14.5 | 0.00 | 0.00 | 0.00 | 94 | 1006.3 |
| 20260509042223 | 23 | 138 | 14.5 | 14.5 | 0.00 | 0.00 | 0.00 | 94 | 1006.7 |
| 20260509041720 | 23 | 148 | 11.3 | 12.9 | 0.00 | 0.00 | 0.00 | 94 | 1006.3 |
| 20260509041217 | 23 | 144 | 14.5 | 14.5 | 0.00 | 0.00 | 0.00 | 94 | 1006.3 |
| 20260509040715 | 23 | 140 | 16.1 | 17.7 | 0.00 | 0.00 | 0.00 | 94 | 1005.7 |
| 20260509040212 | 23 | 149 | 17.7 | 19.3 | 0.00 | 0.00 | 0.00 | 93 | 1005.7 |
| 20260509035708 | 23 | 138 | 11.3 | 12.9 | 0.00 | 0.00 | 0.00 | 93 | 1005.7 |
| 20260509035205 | 23 | 134 | 9.7 | 9.7 | 0.00 | 0.00 | 0.00 | 93 | 1005.7 |
| 20260509034703 | 23 | 125 | 12.9 | 14.5 | 0.00 | 0.00 | 0.00 | 93 | 1006.3 |
| 20260509034200 | 23 | 131 | 11.3 | 11.3 | 0.00 | 0.00 | 0.00 | 93 | 1006.3 |
| 20260509033657 | 23 | 132 | 6.4 | 6.4 | 0.00 | 0.00 | 0.00 | 93 | 1006.3 |
| 20260509033154 | 23 | 132 | 4.8 | 4.8 | 0.00 | 0.00 | 0.00 | 92 | 1006.7 |
| 20260509032651 | 23 | 134 | 12.9 | 12.9 | 0.00 | 0.00 | 0.00 | 92 | 1006.3 |
| 20260509032148 | 23 | 136 | 8.0 | 9.7 | 0.00 | 0.00 | 0.00 | 92 | 1006.0 |
| 20260509031646 | 23 | 136 | 9.7 | 9.7 | 0.00 | 0.00 | 0.00 | 92 | 1006.0 |
| 20260509031143 | 23 | 114 | 8.0 | 8.0 | 0.00 | 0.00 | 0.00 | 92 | 1006.0 |
| 20260509030641 | 23 | 102 | 9.7 | 11.3 | 0.00 | 0.00 | 0.00 | 92 | 1006.0 |
| 20260509030138 | 23 | 133 | 11.3 | 11.3 | 0.00 | 0.00 | 0.00 | 92 | 1006.3 |
| 20260509025634 | 23 | 126 | 9.7 | 11.3 | 0.00 | 0.00 | 0.00 | 92 | 1005.7 |
| 20260509025130 | 23 | 138 | 8.0 | 8.0 | 0.00 | 0.00 | 0.00 | 92 | 1005.7 |
| 20260509024625 | 23 | 132 | 9.7 | 9.7 | 0.00 | 0.00 | 0.00 | 92 | 1005.7 |
| 20260509024121 | 23 | 131 | 4.8 | 4.8 | 0.00 | 0.00 | 0.00 | 91 | 1005.7 |
| 20260509023620 | 23 | 134 | 8.0 | 8.0 | 0.00 | 0.00 | 0.00 | 91 | 1005.7 |
| 20260509023116 | 23 | 130 | 6.4 | 6.4 | 0.00 | 0.00 | 0.00 | 91 | 1005.7 |
| 20260509022612 | 23 | 130 | 6.4 | 6.4 | 0.00 | 0.00 | 0.00 | 91 | 1005.7 |
| 20260509022111 | 23 | 128 | 4.8 | 4.8 | 0.00 | 0.00 | 0.00 | 91 | 1005.7 |
| 20260509021607 | 23 | 128 | 8.0 | 8.0 | 0.00 | 0.00 | 0.00 | 91 | 1005.7 |
| 20260509021104 | 23 | 133 | 4.8 | 4.8 | 0.00 | 0.00 | 0.00 | 91 | 1005.3 |
| 20260509020603 | 23 | 133 | 4.8 | 4.8 | 0.00 | 0.00 | 0.00 | 91 | 1005.3 |
| 20260509020059 | 23 | 133 | 4.8 | 4.8 | 0.00 | 0.00 | 0.00 | 91 | 1005.3 |
| 20260509015558 | 23 | 133 | 4.8 | 4.8 | 0.00 | 0.00 | 0.00 | 90 | 1005.3 |
| 20260509015055 | 23 | 133 | 0.0 | 0.0 | 0.00 | 0.00 | 0.00 | 90 | 1005.3 |
| 20260509014551 | 23 | 133 | 0.0 | 0.0 | 0.00 | 0.00 | 0.00 | 90 | 1005.3 |
| 20260509014048 | 24 | 133 | 0.0 | 0.0 | 0.00 | 0.00 | 0.00 | 89 | 1005.3 |
| 20260509013545 | 24 | 133 | 0.0 | 0.0 | 0.00 | 0.00 | 0.00 | 89 | 1005.3 |
| 20260509013040 | 24 | 133 | 0.0 | 0.0 | 0.00 | 0.00 | 0.00 | 89 | 1005.3 |
| 20260509012537 | 24 | 133 | 0.0 | 0.0 | 0.00 | 0.00 | 0.00 | 89 | 1005.3 |
| 20260509012034 | 24 | 133 | 0.0 | 0.0 | 0.00 | 0.00 | 0.00 | 89 | 1005.3 |
| 20260509011532 | 24 | 133 | 0.0 | 0.0 | 0.00 | 0.00 | 0.00 | 88 | 1005.0 |
| 20260509011029 | 24 | 133 | 0.0 | 0.0 | 0.00 | 0.00 | 0.00 | 88 | 1005.3 |
| 20260509010527 | 24 | 133 | 0.0 | 0.0 | 0.00 | 0.00 | 0.00 | 88 | 1005.0 |
| 20260509010023 | 24 | 133 | 4.8 | 4.8 | 0.00 | 0.00 | 0.00 | 88 | 1005.3 |
| 20260509005521 | 25 | 133 | 0.0 | 0.0 | 0.00 | 0.00 | 0.00 | 88 | 1005.0 |
| 20260509005021 | 25 | 133 | 0.0 | 0.0 | 0.00 | 0.00 | 0.00 | 87 | 1005.0 |
| 20260509004518 | 25 | 133 | 4.8 | 4.8 | 0.00 | 0.00 | 0.00 | 87 | 1005.3 |
| 20260509004015 | 25 | 133 | 4.8 | 4.8 | 0.00 | 0.00 | 0.00 | 87 | 1005.3 |
| 20260509003514 | 25 | 133 | 4.8 | 4.8 | 0.00 | 0.00 | 0.00 | 87 | 1005.3 |
| 20260509003010 | 25 | 133 | 3.2 | 3.2 | 0.00 | 0.00 | 0.00 | 87 | 1005.3 |
| 20260509002508 | 25 | 133 | 6.4 | 6.4 | 0.00 | 0.00 | 0.00 | 87 | 1005.0 |
| 20260509002005 | 25 | 133 | 6.4 | 6.4 | 0.00 | 0.00 | 0.00 | 87 | 1005.3 |
| 20260509001502 | 25 | 128 | 8.0 | 8.0 | 0.00 | 0.00 | 0.00 | 86 | 1005.3 |
| 20260509000958 | 25 | 114 | 6.4 | 6.4 | 0.00 | 0.00 | 0.00 | 86 | 1005.3 |
| 20260509000457 | 25 | 133 | 4.8 | 4.8 | 0.00 | 0.00 | 0.00 | 86 | 1005.0 |
| 20260508235952 | 25 | 114 | 4.8 | 4.8 | 0.00 | 0.00 | 0.00 | 86 | 1005.3 |
| 20260508235450 | 25 | 133 | 6.4 | 6.4 | 0.00 | 0.00 | 0.00 | 86 | 1005.3 |
| 20260508234946 | 25 | 133 | 4.8 | 4.8 | 0.00 | 0.00 | 0.00 | 86 | 1005.0 |
| 20260508234443 | 25 | 126 | 8.0 | 8.0 | 0.00 | 0.00 | 0.00 | 85 | 1005.3 |
| 20260508233941 | 25 | 127 | 8.0 | 8.0 | 0.00 | 0.00 | 0.00 | 85 | 1005.0 |
| 20260508233440 | 25 | 127 | 4.8 | 4.8 | 0.00 | 0.00 | 0.00 | 85 | 1005.0 |
| 20260508232936 | 25 | 134 | 8.0 | 8.0 | 0.00 | 0.00 | 0.00 | 85 | 1005.0 |
| 20260508232433 | 25 | 138 | 9.7 | 9.7 | 0.00 | 0.00 | 0.00 | 85 | 1005.0 |
| 20260508231930 | 25 | 132 | 9.7 | 11.3 | 0.00 | 0.00 | 0.00 | 85 | 1005.0 |
| 20260508231428 | 25 | 132 | 12.9 | 14.5 | 0.00 | 0.00 | 0.00 | 85 | 1005.3 |
| 20260508230924 | 25 | 72 | 4.8 | 4.8 | 0.00 | 0.00 | 0.00 | 84 | 1005.3 |
| 20260508230421 | 25 | 146 | 9.7 | 9.7 | 0.00 | 0.00 | 0.00 | 84 | 1005.0 |
| 20260508225918 | 25 | 144 | 6.4 | 6.4 | 0.00 | 0.00 | 0.00 | 84 | 1005.0 |
| 20260508225415 | 25 | 138 | 11.3 | 12.9 | 0.00 | 0.00 | 0.00 | 83 | 1005.0 |
| 20260508224913 | 25 | 54 | 8.0 | 8.0 | 0.00 | 0.00 | 0.00 | 84 | 1005.0 |
| 20260508224410 | 25 | 107 | 4.8 | 4.8 | 0.00 | 0.00 | 0.00 | 85 | 1005.3 |
| 20260508223907 | 25 | 81 | 4.8 | 4.8 | 0.00 | 0.00 | 0.00 | 85 | 1005.3 |
| 20260508223405 | 25 | 85 | 9.7 | 9.7 | 0.00 | 0.00 | 0.00 | 85 | 1005.3 |
| 20260508222902 | 25 | 138 | 6.4 | 6.4 | 0.00 | 0.00 | 0.00 | 84 | 1005.3 |
| 20260508222359 | 25 | 118 | 9.7 | 9.7 | 0.00 | 0.00 | 0.00 | 83 | 1005.3 |
| 20260508221856 | 25 | 144 | 14.5 | 14.5 | 0.00 | 0.00 | 0.00 | 84 | 1005.0 |
| 20260508221351 | 25 | 126 | 8.0 | 8.0 | 0.00 | 0.00 | 0.00 | 85 | 1005.7 |
| 20260508220848 | 25 | 111 | 6.4 | 6.4 | 0.00 | 0.00 | 0.00 | 84 | 1005.7 |
| 20260508220344 | 25 | 127 | 8.0 | 8.0 | 0.00 | 0.00 | 0.00 | 84 | 1005.7 |
| 20260508215841 | 25 | 145 | 4.8 | 4.8 | 0.00 | 0.00 | 0.00 | 84 | 1005.7 |
| 20260508215338 | 25 | 145 | 4.8 | 4.8 | 0.00 | 0.00 | 0.00 | 83 | 1005.3 |
| 20260508214835 | 25 | 145 | 6.4 | 6.4 | 0.00 | 0.00 | 0.00 | 83 | 1005.7 |
| 20260508214332 | 25 | 150 | 6.4 | 6.4 | 0.00 | 0.00 | 0.00 | 83 | 1005.7 |
| 20260508213828 | 25 | 150 | 6.4 | 6.4 | 0.00 | 0.00 | 0.00 | 81 | 1005.7 |
| 20260508213325 | 25 | 150 | 11.3 | 11.3 | 0.00 | 0.00 | 0.00 | 79 | 1005.7 |
| 20260508212821 | 25 | 144 | 4.8 | 4.8 | 0.00 | 0.00 | 0.00 | 78 | 1005.7 |
| 20260508212318 | 26 | 121 | 6.4 | 6.4 | 0.00 | 0.00 | 0.00 | 78 | 1006.0 |